sensor_id;sensor_type;location;lat;lon;timestamp;temperature;humidity
10419;DHT22;5256;48.728;9.140;2024-03-08T00:00:38;2.00;99.90
10419;DHT22;5256;48.728;9.140;2024-03-08T00:03:05;2.00;99.90
10419;DHT22;5256;48.728;9.140;2024-03-08T00:05:31;2.00;99.90
10419;DHT22;5256;48.728;9.140;2024-03-08T00:07:57;1.90;99.90
10419;DHT22;5256;48.728;9.140;2024-03-08T00:10:22;1.80;99.90
10419;DHT22;5256;48.728;9.140;2024-03-08T00:12:48;1.90;99.90
10419;DHT22;5256;48.728;9.140;2024-03-08T00:15:15;1.80;99.90
10419;DHT22;5256;48.728;9.140;2024-03-08T00:17:41;1.80;99.90
10419;DHT22;5256;48.728;9.140;2024-03-08T00:20:07;1.80;99.90
10419;DHT22;5256;48.728;9.140;2024-03-08T00:22:37;1.80;99.90
10419;DHT22;5256;48.728;9.140;2024-03-08T00:25:04;1.80;99.90
10419;DHT22;5256;48.728;9.140;2024-03-08T00:27:29;1.70;99.90
10419;DHT22;5256;48.728;9.140;2024-03-08T00:29:58;1.70;99.90
10419;DHT22;5256;48.728;9.140;2024-03-08T00:32:23;1.70;99.90
10419;DHT22;5256;48.728;9.140;2024-03-08T00:34:53;1.60;99.90
10419;DHT22;5256;48.728;9.140;2024-03-08T00:37:20;1.70;99.90
10419;DHT22;5256;48.728;9.140;2024-03-08T00:39:47;1.60;99.90
10419;DHT22;5256;48.728;9.140;2024-03-08T00:42:13;1.60;99.90
10419;DHT22;5256;48.728;9.140;2024-03-08T00:44:39;1.60;99.90
10419;DHT22;5256;48.728;9.140;2024-03-08T00:47:05;1.60;99.90
10419;DHT22;5256;48.728;9.140;2024-03-08T00:49:31;1.60;99.90
10419;DHT22;5256;48.728;9.140;2024-03-08T00:51:56;1.70;99.90
10419;DHT22;5256;48.728;9.140;2024-03-08T00:54:22;1.60;99.90
10419;DHT22;5256;48.728;9.140;2024-03-08T00:56:47;1.50;99.90
10419;DHT22;5256;48.728;9.140;2024-03-08T00:59:13;1.40;99.90
10419;DHT22;5256;48.728;9.140;2024-03-08T01:01:40;1.40;99.90
10419;DHT22;5256;48.728;9.140;2024-03-08T01:04:05;1.30;99.90
10419;DHT22;5256;48.728;9.140;2024-03-08T01:06:32;1.30;99.90
10419;DHT22;5256;48.728;9.140;2024-03-08T01:08:58;1.30;99.90
10419;DHT22;5256;48.728;9.140;2024-03-08T01:11:24;1.30;99.90
10419;DHT22;5256;48.728;9.140;2024-03-08T01:13:49;1.30;99.90
10419;DHT22;5256;48.728;9.140;2024-03-08T01:16:15;1.30;99.90
10419;DHT22;5256;48.728;9.140;2024-03-08T01:18:42;1.30;99.90
10419;DHT22;5256;48.728;9.140;2024-03-08T01:21:08;1.30;99.90
10419;DHT22;5256;48.728;9.140;2024-03-08T01:23:33;1.20;99.90
10419;DHT22;5256;48.728;9.140;2024-03-08T01:26:00;1.10;99.90
10419;DHT22;5256;48.728;9.140;2024-03-08T01:28:27;1.10;99.90
10419;DHT22;5256;48.728;9.140;2024-03-08T01:30:53;1.10;99.90
10419;DHT22;5256;48.728;9.140;2024-03-08T01:33:23;1.10;99.90
10419;DHT22;5256;48.728;9.140;2024-03-08T01:35:51;1.10;99.90
10419;DHT22;5256;48.728;9.140;2024-03-08T01:38:17;1.20;99.90
10419;DHT22;5256;48.728;9.140;2024-03-08T01:40:42;1.20;99.90
10419;DHT22;5256;48.728;9.140;2024-03-08T01:43:27;1.20;99.90
10419;DHT22;5256;48.728;9.140;2024-03-08T01:45:58;1.10;99.90
10419;DHT22;5256;48.728;9.140;2024-03-08T01:48:27;1.10;99.90
10419;DHT22;5256;48.728;9.140;2024-03-08T01:50:56;1.10;99.90
10419;DHT22;5256;48.728;9.140;2024-03-08T01:53:22;1.10;99.90
10419;DHT22;5256;48.728;9.140;2024-03-08T01:55:49;1.10;99.90
10419;DHT22;5256;48.728;9.140;2024-03-08T01:58:15;1.10;99.90
10419;DHT22;5256;48.728;9.140;2024-03-08T02:00:44;1.10;99.90
10419;DHT22;5256;48.728;9.140;2024-03-08T02:03:11;1.10;99.90
10419;DHT22;5256;48.728;9.140;2024-03-08T02:05:39;1.10;99.90
10419;DHT22;5256;48.728;9.140;2024-03-08T02:08:06;1.20;99.90
10419;DHT22;5256;48.728;9.140;2024-03-08T02:10:38;1.10;99.90
10419;DHT22;5256;48.728;9.140;2024-03-08T02:13:04;1.10;99.90
10419;DHT22;5256;48.728;9.140;2024-03-08T02:18:18;1.00;99.90
10419;DHT22;5256;48.728;9.140;2024-03-08T02:20:45;1.00;99.90
10419;DHT22;5256;48.728;9.140;2024-03-08T02:23:13;0.90;99.90
10419;DHT22;5256;48.728;9.140;2024-03-08T02:25:39;0.90;99.90
10419;DHT22;5256;48.728;9.140;2024-03-08T02:28:05;0.90;99.90
10419;DHT22;5256;48.728;9.140;2024-03-08T02:30:30;0.90;99.90
10419;DHT22;5256;48.728;9.140;2024-03-08T02:32:56;1.00;99.90
10419;DHT22;5256;48.728;9.140;2024-03-08T02:35:23;1.00;99.90
10419;DHT22;5256;48.728;9.140;2024-03-08T02:37:48;0.90;99.90
10419;DHT22;5256;48.728;9.140;2024-03-08T02:40:14;0.90;99.90
10419;DHT22;5256;48.728;9.140;2024-03-08T02:42:39;0.90;99.90
10419;DHT22;5256;48.728;9.140;2024-03-08T02:45:05;0.90;99.90
10419;DHT22;5256;48.728;9.140;2024-03-08T02:47:31;0.80;99.90
10419;DHT22;5256;48.728;9.140;2024-03-08T02:49:57;0.90;99.90
10419;DHT22;5256;48.728;9.140;2024-03-08T02:52:23;0.80;99.90
10419;DHT22;5256;48.728;9.140;2024-03-08T02:54:48;0.80;99.90
10419;DHT22;5256;48.728;9.140;2024-03-08T02:57:15;0.80;99.90
10419;DHT22;5256;48.728;9.140;2024-03-08T02:59:41;0.80;99.90
10419;DHT22;5256;48.728;9.140;2024-03-08T03:02:06;0.70;99.90
10419;DHT22;5256;48.728;9.140;2024-03-08T03:04:32;0.70;99.90
10419;DHT22;5256;48.728;9.140;2024-03-08T03:07:00;0.70;99.90
10419;DHT22;5256;48.728;9.140;2024-03-08T03:09:26;0.70;99.90
10419;DHT22;5256;48.728;9.140;2024-03-08T03:11:53;0.70;99.90
10419;DHT22;5256;48.728;9.140;2024-03-08T03:14:21;0.70;99.90
10419;DHT22;5256;48.728;9.140;2024-03-08T03:16:46;0.60;99.90
10419;DHT22;5256;48.728;9.140;2024-03-08T03:19:12;0.60;99.90
10419;DHT22;5256;48.728;9.140;2024-03-08T03:21:38;0.60;99.90
10419;DHT22;5256;48.728;9.140;2024-03-08T03:24:04;0.60;99.90
10419;DHT22;5256;48.728;9.140;2024-03-08T03:26:38;0.50;99.90
10419;DHT22;5256;48.728;9.140;2024-03-08T03:29:07;0.50;99.90
10419;DHT22;5256;48.728;9.140;2024-03-08T03:31:34;0.50;99.90
10419;DHT22;5256;48.728;9.140;2024-03-08T03:34:01;0.50;99.90
10419;DHT22;5256;48.728;9.140;2024-03-08T03:36:30;0.50;99.90
10419;DHT22;5256;48.728;9.140;2024-03-08T03:38:56;0.50;99.90
10419;DHT22;5256;48.728;9.140;2024-03-08T03:41:31;0.50;99.90
10419;DHT22;5256;48.728;9.140;2024-03-08T03:43:56;0.40;99.90
10419;DHT22;5256;48.728;9.140;2024-03-08T03:46:22;0.40;99.90
10419;DHT22;5256;48.728;9.140;2024-03-08T03:48:48;0.40;99.90
10419;DHT22;5256;48.728;9.140;2024-03-08T03:51:13;0.40;99.90
10419;DHT22;5256;48.728;9.140;2024-03-08T03:53:41;0.30;99.90
10419;DHT22;5256;48.728;9.140;2024-03-08T03:56:07;0.30;99.90
10419;DHT22;5256;48.728;9.140;2024-03-08T03:58:33;0.30;99.90
10419;DHT22;5256;48.728;9.140;2024-03-08T04:00:58;0.30;99.90
10419;DHT22;5256;48.728;9.140;2024-03-08T04:03:24;0.30;99.90
10419;DHT22;5256;48.728;9.140;2024-03-08T04:05:49;0.30;99.90
10419;DHT22;5256;48.728;9.140;2024-03-08T04:08:16;0.20;99.90
10419;DHT22;5256;48.728;9.140;2024-03-08T04:10:42;0.20;99.90
10419;DHT22;5256;48.728;9.140;2024-03-08T04:13:08;0.10;99.90
10419;DHT22;5256;48.728;9.140;2024-03-08T04:15:35;0.10;99.90
10419;DHT22;5256;48.728;9.140;2024-03-08T04:18:00;0.10;99.90
10419;DHT22;5256;48.728;9.140;2024-03-08T04:20:26;0.10;99.90
10419;DHT22;5256;48.728;9.140;2024-03-08T04:22:51;0.10;99.90
10419;DHT22;5256;48.728;9.140;2024-03-08T04:25:17;0.10;99.90
10419;DHT22;5256;48.728;9.140;2024-03-08T04:27:43;0.10;99.90
10419;DHT22;5256;48.728;9.140;2024-03-08T04:30:10;0.00;99.90
10419;DHT22;5256;48.728;9.140;2024-03-08T04:32:35;0.00;99.90
10419;DHT22;5256;48.728;9.140;2024-03-08T04:35:01;0.00;99.90
10419;DHT22;5256;48.728;9.140;2024-03-08T04:37:28;0.00;99.90
10419;DHT22;5256;48.728;9.140;2024-03-08T04:39:57;-0.10;99.90
10419;DHT22;5256;48.728;9.140;2024-03-08T04:42:22;-0.10;99.90
10419;DHT22;5256;48.728;9.140;2024-03-08T04:44:48;-0.10;99.90
10419;DHT22;5256;48.728;9.140;2024-03-08T04:47:14;0.00;99.90
10419;DHT22;5256;48.728;9.140;2024-03-08T04:49:39;0.00;99.90
10419;DHT22;5256;48.728;9.140;2024-03-08T04:52:05;-0.10;99.90
10419;DHT22;5256;48.728;9.140;2024-03-08T04:54:32;-0.20;99.90
10419;DHT22;5256;48.728;9.140;2024-03-08T04:56:58;-0.20;99.90
10419;DHT22;5256;48.728;9.140;2024-03-08T04:59:26;-0.20;99.90
10419;DHT22;5256;48.728;9.140;2024-03-08T05:01:52;-0.20;99.90
10419;DHT22;5256;48.728;9.140;2024-03-08T05:04:17;-0.20;99.90
10419;DHT22;5256;48.728;9.140;2024-03-08T05:06:43;-0.20;99.90
10419;DHT22;5256;48.728;9.140;2024-03-08T05:09:08;-0.20;99.90
10419;DHT22;5256;48.728;9.140;2024-03-08T05:11:45;-0.20;99.90
10419;DHT22;5256;48.728;9.140;2024-03-08T05:14:11;-0.20;99.90
10419;DHT22;5256;48.728;9.140;2024-03-08T05:16:44;-0.30;99.90
10419;DHT22;5256;48.728;9.140;2024-03-08T05:19:16;-0.30;99.90
10419;DHT22;5256;48.728;9.140;2024-03-08T05:21:46;-0.40;99.90
10419;DHT22;5256;48.728;9.140;2024-03-08T05:24:12;-0.40;99.90
10419;DHT22;5256;48.728;9.140;2024-03-08T05:26:38;-0.30;99.90
10419;DHT22;5256;48.728;9.140;2024-03-08T05:29:04;-0.30;99.90
10419;DHT22;5256;48.728;9.140;2024-03-08T05:31:38;-0.30;99.90
10419;DHT22;5256;48.728;9.140;2024-03-08T05:34:04;-0.30;99.90
10419;DHT22;5256;48.728;9.140;2024-03-08T05:36:30;-0.40;99.90
10419;DHT22;5256;48.728;9.140;2024-03-08T05:38:57;-0.50;99.90
10419;DHT22;5256;48.728;9.140;2024-03-08T05:41:23;-0.50;99.90
10419;DHT22;5256;48.728;9.140;2024-03-08T05:43:50;-0.50;99.90
10419;DHT22;5256;48.728;9.140;2024-03-08T05:46:16;-0.40;99.90
10419;DHT22;5256;48.728;9.140;2024-03-08T05:48:43;-0.40;99.90
10419;DHT22;5256;48.728;9.140;2024-03-08T05:51:09;-0.40;99.90
10419;DHT22;5256;48.728;9.140;2024-03-08T05:53:35;-0.40;99.90
10419;DHT22;5256;48.728;9.140;2024-03-08T05:56:00;-0.50;99.90
10419;DHT22;5256;48.728;9.140;2024-03-08T05:58:27;-0.50;99.90
10419;DHT22;5256;48.728;9.140;2024-03-08T06:00:55;-0.60;99.90
10419;DHT22;5256;48.728;9.140;2024-03-08T06:03:21;-0.60;99.90
10419;DHT22;5256;48.728;9.140;2024-03-08T06:05:48;-0.60;99.90
10419;DHT22;5256;48.728;9.140;2024-03-08T06:08:13;-0.70;99.90
10419;DHT22;5256;48.728;9.140;2024-03-08T06:10:40;-0.70;99.90
10419;DHT22;5256;48.728;9.140;2024-03-08T06:13:05;-0.60;99.90
10419;DHT22;5256;48.728;9.140;2024-03-08T06:15:32;-0.60;99.90
10419;DHT22;5256;48.728;9.140;2024-03-08T06:17:57;-0.70;99.90
10419;DHT22;5256;48.728;9.140;2024-03-08T06:20:23;-0.80;99.90
10419;DHT22;5256;48.728;9.140;2024-03-08T06:22:51;-0.80;99.90
10419;DHT22;5256;48.728;9.140;2024-03-08T06:25:17;-0.70;99.90
10419;DHT22;5256;48.728;9.140;2024-03-08T06:27:43;-0.60;99.90
10419;DHT22;5256;48.728;9.140;2024-03-08T06:30:09;-0.60;99.90
10419;DHT22;5256;48.728;9.140;2024-03-08T06:32:36;-0.60;99.90
10419;DHT22;5256;48.728;9.140;2024-03-08T06:35:03;-0.40;99.90
10419;DHT22;5256;48.728;9.140;2024-03-08T06:37:34;-0.30;99.90
10419;DHT22;5256;48.728;9.140;2024-03-08T06:40:00;-0.20;99.90
10419;DHT22;5256;48.728;9.140;2024-03-08T06:42:27;-0.10;99.90
10419;DHT22;5256;48.728;9.140;2024-03-08T06:44:53;0.10;99.90
10419;DHT22;5256;48.728;9.140;2024-03-08T06:47:21;0.20;99.90
10419;DHT22;5256;48.728;9.140;2024-03-08T06:49:47;0.30;99.90
10419;DHT22;5256;48.728;9.140;2024-03-08T06:52:14;0.50;99.90
10419;DHT22;5256;48.728;9.140;2024-03-08T06:54:40;0.60;99.90
10419;DHT22;5256;48.728;9.140;2024-03-08T06:57:06;0.70;99.90
10419;DHT22;5256;48.728;9.140;2024-03-08T06:59:32;0.90;99.90
10419;DHT22;5256;48.728;9.140;2024-03-08T07:01:58;0.90;99.90
10419;DHT22;5256;48.728;9.140;2024-03-08T07:04:25;1.00;99.90
10419;DHT22;5256;48.728;9.140;2024-03-08T07:06:54;1.10;99.90
10419;DHT22;5256;48.728;9.140;2024-03-08T07:09:19;1.10;99.90
10419;DHT22;5256;48.728;9.140;2024-03-08T07:11:45;1.30;99.90
10419;DHT22;5256;48.728;9.140;2024-03-08T07:14:12;1.30;99.90
10419;DHT22;5256;48.728;9.140;2024-03-08T07:16:37;1.40;99.90
10419;DHT22;5256;48.728;9.140;2024-03-08T07:19:05;1.50;99.90
10419;DHT22;5256;48.728;9.140;2024-03-08T07:21:31;1.60;99.90
10419;DHT22;5256;48.728;9.140;2024-03-08T07:23:56;1.60;99.90
10419;DHT22;5256;48.728;9.140;2024-03-08T07:26:25;1.70;99.90
10419;DHT22;5256;48.728;9.140;2024-03-08T07:28:50;1.70;99.90
10419;DHT22;5256;48.728;9.140;2024-03-08T07:31:16;1.80;99.90
10419;DHT22;5256;48.728;9.140;2024-03-08T07:33:50;2.00;99.90
10419;DHT22;5256;48.728;9.140;2024-03-08T07:36:16;2.00;99.90
10419;DHT22;5256;48.728;9.140;2024-03-08T07:38:42;2.00;99.90
10419;DHT22;5256;48.728;9.140;2024-03-08T07:41:07;2.10;99.90
10419;DHT22;5256;48.728;9.140;2024-03-08T07:43:33;2.10;99.90
10419;DHT22;5256;48.728;9.140;2024-03-08T07:45:58;2.10;99.90
10419;DHT22;5256;48.728;9.140;2024-03-08T07:48:24;2.20;99.90
10419;DHT22;5256;48.728;9.140;2024-03-08T07:50:49;2.20;99.90
10419;DHT22;5256;48.728;9.140;2024-03-08T07:53:15;2.20;99.90
10419;DHT22;5256;48.728;9.140;2024-03-08T07:55:41;2.30;99.90
10419;DHT22;5256;48.728;9.140;2024-03-08T07:58:07;2.50;99.90
10419;DHT22;5256;48.728;9.140;2024-03-08T08:00:36;2.50;99.90
10419;DHT22;5256;48.728;9.140;2024-03-08T08:03:02;2.50;99.90
10419;DHT22;5256;48.728;9.140;2024-03-08T08:05:28;2.60;99.90
10419;DHT22;5256;48.728;9.140;2024-03-08T08:07:53;2.70;99.90
10419;DHT22;5256;48.728;9.140;2024-03-08T08:10:19;2.70;99.90
10419;DHT22;5256;48.728;9.140;2024-03-08T08:12:48;2.70;99.90
10419;DHT22;5256;48.728;9.140;2024-03-08T08:15:14;2.80;99.90
10419;DHT22;5256;48.728;9.140;2024-03-08T08:17:43;2.90;99.90
10419;DHT22;5256;48.728;9.140;2024-03-08T08:20:10;2.90;99.90
10419;DHT22;5256;48.728;9.140;2024-03-08T08:22:40;2.90;99.90
10419;DHT22;5256;48.728;9.140;2024-03-08T08:25:06;2.90;99.90
10419;DHT22;5256;48.728;9.140;2024-03-08T08:27:32;2.90;99.90
10419;DHT22;5256;48.728;9.140;2024-03-08T08:29:58;2.90;99.90
10419;DHT22;5256;48.728;9.140;2024-03-08T08:32:24;2.90;99.90
10419;DHT22;5256;48.728;9.140;2024-03-08T08:34:49;3.00;99.90
10419;DHT22;5256;48.728;9.140;2024-03-08T08:37:15;3.20;99.90
10419;DHT22;5256;48.728;9.140;2024-03-08T08:39:41;3.10;99.90
10419;DHT22;5256;48.728;9.140;2024-03-08T08:42:07;3.20;99.90
10419;DHT22;5256;48.728;9.140;2024-03-08T08:44:35;3.20;99.90
10419;DHT22;5256;48.728;9.140;2024-03-08T08:47:01;3.30;99.90
10419;DHT22;5256;48.728;9.140;2024-03-08T08:49:26;3.40;99.90
10419;DHT22;5256;48.728;9.140;2024-03-08T08:51:52;3.40;99.90
10419;DHT22;5256;48.728;9.140;2024-03-08T08:54:18;3.40;99.90
10419;DHT22;5256;48.728;9.140;2024-03-08T08:56:44;3.30;99.90
10419;DHT22;5256;48.728;9.140;2024-03-08T08:59:10;3.20;99.90
10419;DHT22;5256;48.728;9.140;2024-03-08T09:01:39;3.30;99.90
10419;DHT22;5256;48.728;9.140;2024-03-08T09:04:05;3.20;99.90
10419;DHT22;5256;48.728;9.140;2024-03-08T09:06:31;3.20;99.90
10419;DHT22;5256;48.728;9.140;2024-03-08T09:08:57;3.30;99.90
10419;DHT22;5256;48.728;9.140;2024-03-08T09:11:23;3.30;99.90
10419;DHT22;5256;48.728;9.140;2024-03-08T09:13:50;3.30;99.90
10419;DHT22;5256;48.728;9.140;2024-03-08T09:16:16;3.40;99.90
10419;DHT22;5256;48.728;9.140;2024-03-08T09:18:41;3.30;99.90
10419;DHT22;5256;48.728;9.140;2024-03-08T09:21:07;3.50;99.90
10419;DHT22;5256;48.728;9.140;2024-03-08T09:23:35;3.60;99.90
10419;DHT22;5256;48.728;9.140;2024-03-08T09:26:01;3.70;99.90
10419;DHT22;5256;48.728;9.140;2024-03-08T09:28:28;3.50;99.90
10419;DHT22;5256;48.728;9.140;2024-03-08T09:30:54;3.70;99.90
10419;DHT22;5256;48.728;9.140;2024-03-08T09:33:20;3.70;99.90
10419;DHT22;5256;48.728;9.140;2024-03-08T09:35:46;3.70;99.90
10419;DHT22;5256;48.728;9.140;2024-03-08T09:38:16;3.80;99.90
10419;DHT22;5256;48.728;9.140;2024-03-08T09:40:42;3.80;99.90
10419;DHT22;5256;48.728;9.140;2024-03-08T09:43:08;3.70;99.90
10419;DHT22;5256;48.728;9.140;2024-03-08T09:45:36;3.70;99.90
10419;DHT22;5256;48.728;9.140;2024-03-08T09:48:16;3.80;99.90
10419;DHT22;5256;48.728;9.140;2024-03-08T09:50:44;3.90;99.90
10419;DHT22;5256;48.728;9.140;2024-03-08T09:53:11;3.90;99.90
10419;DHT22;5256;48.728;9.140;2024-03-08T09:55:38;3.80;99.90
10419;DHT22;5256;48.728;9.140;2024-03-08T09:58:08;4.10;99.90
10419;DHT22;5256;48.728;9.140;2024-03-08T10:00:54;4.20;99.90
10419;DHT22;5256;48.728;9.140;2024-03-08T10:03:23;4.40;99.90
10419;DHT22;5256;48.728;9.140;2024-03-08T10:05:48;4.50;99.90
10419;DHT22;5256;48.728;9.140;2024-03-08T10:08:14;4.70;99.90
10419;DHT22;5256;48.728;9.140;2024-03-08T10:10:40;4.70;99.90
10419;DHT22;5256;48.728;9.140;2024-03-08T10:13:09;4.60;99.90
10419;DHT22;5256;48.728;9.140;2024-03-08T10:15:36;4.40;99.90
10419;DHT22;5256;48.728;9.140;2024-03-08T10:18:02;4.50;99.90
10419;DHT22;5256;48.728;9.140;2024-03-08T10:20:32;4.70;99.90
10419;DHT22;5256;48.728;9.140;2024-03-08T10:22:59;4.70;99.90
10419;DHT22;5256;48.728;9.140;2024-03-08T10:25:25;5.00;99.90
10419;DHT22;5256;48.728;9.140;2024-03-08T10:27:51;5.10;99.90
10419;DHT22;5256;48.728;9.140;2024-03-08T10:30:16;5.00;99.90
10419;DHT22;5256;48.728;9.140;2024-03-08T10:32:47;5.00;99.90
10419;DHT22;5256;48.728;9.140;2024-03-08T10:35:12;4.90;99.90
10419;DHT22;5256;48.728;9.140;2024-03-08T10:37:49;5.00;99.90
10419;DHT22;5256;48.728;9.140;2024-03-08T10:40:19;5.10;99.90
10419;DHT22;5256;48.728;9.140;2024-03-08T10:43:00;5.10;99.90
10419;DHT22;5256;48.728;9.140;2024-03-08T10:45:35;5.20;99.90
10419;DHT22;5256;48.728;9.140;2024-03-08T10:48:32;5.40;99.90
10419;DHT22;5256;48.728;9.140;2024-03-08T10:51:03;5.60;99.90
10419;DHT22;5256;48.728;9.140;2024-03-08T10:53:29;5.80;99.90
10419;DHT22;5256;48.728;9.140;2024-03-08T10:55:56;5.90;99.90
10419;DHT22;5256;48.728;9.140;2024-03-08T10:58:24;6.00;99.90
10419;DHT22;5256;48.728;9.140;2024-03-08T11:00:57;6.10;99.90
10419;DHT22;5256;48.728;9.140;2024-03-08T11:06:08;6.10;99.90
10419;DHT22;5256;48.728;9.140;2024-03-08T11:08:36;6.20;99.90
10419;DHT22;5256;48.728;9.140;2024-03-08T11:11:02;6.10;99.90
10419;DHT22;5256;48.728;9.140;2024-03-08T11:13:41;6.10;99.90
10419;DHT22;5256;48.728;9.140;2024-03-08T11:16:23;6.40;99.90
10419;DHT22;5256;48.728;9.140;2024-03-08T11:21:36;6.50;99.90
10419;DHT22;5256;48.728;9.140;2024-03-08T11:24:13;6.60;99.90
10419;DHT22;5256;48.728;9.140;2024-03-08T11:26:39;6.60;99.90
10419;DHT22;5256;48.728;9.140;2024-03-08T11:34:48;6.30;99.90
10419;DHT22;5256;48.728;9.140;2024-03-08T11:37:19;6.00;99.90
10419;DHT22;5256;48.728;9.140;2024-03-08T11:39:51;6.10;99.90
10419;DHT22;5256;48.728;9.140;2024-03-08T11:42:18;6.10;99.90
10419;DHT22;5256;48.728;9.140;2024-03-08T11:44:44;5.70;99.90
10419;DHT22;5256;48.728;9.140;2024-03-08T11:47:14;5.50;99.90
10419;DHT22;5256;48.728;9.140;2024-03-08T11:49:40;5.70;99.90
10419;DHT22;5256;48.728;9.140;2024-03-08T11:52:17;5.90;99.90
10419;DHT22;5256;48.728;9.140;2024-03-08T11:54:53;6.20;99.90
10419;DHT22;5256;48.728;9.140;2024-03-08T11:57:25;6.20;99.90
10419;DHT22;5256;48.728;9.140;2024-03-08T11:59:51;6.00;99.90
10419;DHT22;5256;48.728;9.140;2024-03-08T12:02:17;6.30;99.90
10419;DHT22;5256;48.728;9.140;2024-03-08T12:04:44;6.10;99.90
10419;DHT22;5256;48.728;9.140;2024-03-08T12:07:11;6.20;99.90
10419;DHT22;5256;48.728;9.140;2024-03-08T12:09:40;6.30;99.90
10419;DHT22;5256;48.728;9.140;2024-03-08T12:12:07;6.20;99.90
10419;DHT22;5256;48.728;9.140;2024-03-08T12:14:33;6.10;99.90
10419;DHT22;5256;48.728;9.140;2024-03-08T12:17:02;6.20;99.90
10419;DHT22;5256;48.728;9.140;2024-03-08T12:19:30;6.40;99.90
10419;DHT22;5256;48.728;9.140;2024-03-08T12:21:55;6.30;99.90
10419;DHT22;5256;48.728;9.140;2024-03-08T12:24:21;6.30;99.90
10419;DHT22;5256;48.728;9.140;2024-03-08T12:26:48;6.20;99.90
10419;DHT22;5256;48.728;9.140;2024-03-08T12:29:27;6.40;99.90
10419;DHT22;5256;48.728;9.140;2024-03-08T12:31:59;6.50;99.90
10419;DHT22;5256;48.728;9.140;2024-03-08T12:34:26;6.10;99.90
10419;DHT22;5256;48.728;9.140;2024-03-08T12:36:54;6.00;99.90
10419;DHT22;5256;48.728;9.140;2024-03-08T12:39:21;5.90;99.90
10419;DHT22;5256;48.728;9.140;2024-03-08T12:41:53;5.90;99.90
10419;DHT22;5256;48.728;9.140;2024-03-08T12:44:20;6.00;99.90
10419;DHT22;5256;48.728;9.140;2024-03-08T12:46:47;6.10;99.90
10419;DHT22;5256;48.728;9.140;2024-03-08T12:49:13;6.00;99.90
10419;DHT22;5256;48.728;9.140;2024-03-08T12:51:43;5.80;99.90
10419;DHT22;5256;48.728;9.140;2024-03-08T12:54:09;5.70;99.90
10419;DHT22;5256;48.728;9.140;2024-03-08T12:56:36;5.50;99.90
10419;DHT22;5256;48.728;9.140;2024-03-08T12:59:04;5.60;99.90
10419;DHT22;5256;48.728;9.140;2024-03-08T13:01:30;5.80;99.90
10419;DHT22;5256;48.728;9.140;2024-03-08T13:03:58;5.90;99.90
10419;DHT22;5256;48.728;9.140;2024-03-08T13:06:28;6.00;99.90
10419;DHT22;5256;48.728;9.140;2024-03-08T13:08:55;6.00;99.90
10419;DHT22;5256;48.728;9.140;2024-03-08T13:11:22;6.00;99.90
10419;DHT22;5256;48.728;9.140;2024-03-08T13:13:49;6.10;99.90
10419;DHT22;5256;48.728;9.140;2024-03-08T13:16:15;6.30;99.90
10419;DHT22;5256;48.728;9.140;2024-03-08T13:18:44;6.30;99.90
10419;DHT22;5256;48.728;9.140;2024-03-08T13:21:10;6.40;99.90
10419;DHT22;5256;48.728;9.140;2024-03-08T13:23:36;6.50;99.90
10419;DHT22;5256;48.728;9.140;2024-03-08T13:26:09;6.50;99.90
10419;DHT22;5256;48.728;9.140;2024-03-08T13:28:48;6.60;99.90
10419;DHT22;5256;48.728;9.140;2024-03-08T13:31:17;6.60;99.90
10419;DHT22;5256;48.728;9.140;2024-03-08T13:33:45;6.60;99.90
10419;DHT22;5256;48.728;9.140;2024-03-08T13:36:13;6.60;99.90
10419;DHT22;5256;48.728;9.140;2024-03-08T13:38:45;6.60;99.90
10419;DHT22;5256;48.728;9.140;2024-03-08T13:41:11;6.70;99.90
10419;DHT22;5256;48.728;9.140;2024-03-08T13:43:42;6.60;99.90
10419;DHT22;5256;48.728;9.140;2024-03-08T13:46:08;6.80;99.90
10419;DHT22;5256;48.728;9.140;2024-03-08T13:48:36;6.80;99.90
10419;DHT22;5256;48.728;9.140;2024-03-08T13:51:04;6.90;99.90
10419;DHT22;5256;48.728;9.140;2024-03-08T13:53:31;6.90;99.90
10419;DHT22;5256;48.728;9.140;2024-03-08T13:55:57;6.90;99.90
10419;DHT22;5256;48.728;9.140;2024-03-08T13:58:22;6.90;99.90
10419;DHT22;5256;48.728;9.140;2024-03-08T14:00:49;7.00;99.90
10419;DHT22;5256;48.728;9.140;2024-03-08T14:03:17;6.90;99.90
10419;DHT22;5256;48.728;9.140;2024-03-08T14:05:43;7.00;99.90
10419;DHT22;5256;48.728;9.140;2024-03-08T14:08:10;7.20;99.90
10419;DHT22;5256;48.728;9.140;2024-03-08T14:10:37;7.10;99.90
10419;DHT22;5256;48.728;9.140;2024-03-08T14:13:04;6.90;99.90
10419;DHT22;5256;48.728;9.140;2024-03-08T14:15:34;7.00;99.90
10419;DHT22;5256;48.728;9.140;2024-03-08T14:18:01;7.10;99.90
10419;DHT22;5256;48.728;9.140;2024-03-08T14:20:28;7.10;99.90
10419;DHT22;5256;48.728;9.140;2024-03-08T14:22:57;7.10;99.90
10419;DHT22;5256;48.728;9.140;2024-03-08T14:25:24;7.30;99.90
10419;DHT22;5256;48.728;9.140;2024-03-08T14:27:52;7.30;99.90
10419;DHT22;5256;48.728;9.140;2024-03-08T14:30:28;7.30;99.90
10419;DHT22;5256;48.728;9.140;2024-03-08T14:33:07;7.30;99.90
10419;DHT22;5256;48.728;9.140;2024-03-08T14:35:40;7.50;99.90
10419;DHT22;5256;48.728;9.140;2024-03-08T14:38:06;7.50;99.90
10419;DHT22;5256;48.728;9.140;2024-03-08T14:40:36;7.50;99.90
10419;DHT22;5256;48.728;9.140;2024-03-08T14:43:02;7.60;99.90
10419;DHT22;5256;48.728;9.140;2024-03-08T14:45:29;7.70;99.90
10419;DHT22;5256;48.728;9.140;2024-03-08T14:47:56;7.70;99.90
10419;DHT22;5256;48.728;9.140;2024-03-08T14:50:24;7.70;99.90
10419;DHT22;5256;48.728;9.140;2024-03-08T14:52:50;7.60;99.90
10419;DHT22;5256;48.728;9.140;2024-03-08T14:55:16;7.80;99.90
10419;DHT22;5256;48.728;9.140;2024-03-08T14:57:45;7.80;99.90
10419;DHT22;5256;48.728;9.140;2024-03-08T15:00:14;7.80;99.90
10419;DHT22;5256;48.728;9.140;2024-03-08T15:02:44;7.80;99.90
10419;DHT22;5256;48.728;9.140;2024-03-08T15:05:10;7.70;99.90
10419;DHT22;5256;48.728;9.140;2024-03-08T15:07:39;7.70;99.90
10419;DHT22;5256;48.728;9.140;2024-03-08T15:10:07;7.90;99.90
10419;DHT22;5256;48.728;9.140;2024-03-08T15:12:37;8.00;99.90
10419;DHT22;5256;48.728;9.140;2024-03-08T15:15:05;8.00;99.90
10419;DHT22;5256;48.728;9.140;2024-03-08T15:17:36;7.90;99.90
10419;DHT22;5256;48.728;9.140;2024-03-08T15:20:08;8.00;99.90
10419;DHT22;5256;48.728;9.140;2024-03-08T15:22:43;8.20;99.90
10419;DHT22;5256;48.728;9.140;2024-03-08T15:25:09;8.30;99.90
10419;DHT22;5256;48.728;9.140;2024-03-08T15:27:38;8.80;99.90
10419;DHT22;5256;48.728;9.140;2024-03-08T15:30:07;8.80;99.90
10419;DHT22;5256;48.728;9.140;2024-03-08T15:32:44;9.40;99.90
10419;DHT22;5256;48.728;9.140;2024-03-08T15:35:10;10.00;99.90
10419;DHT22;5256;48.728;9.140;2024-03-08T15:37:42;10.20;99.90
10419;DHT22;5256;48.728;9.140;2024-03-08T15:40:11;10.50;99.90
10419;DHT22;5256;48.728;9.140;2024-03-08T15:42:55;10.30;99.90
10419;DHT22;5256;48.728;9.140;2024-03-08T15:45:21;10.50;99.90
10419;DHT22;5256;48.728;9.140;2024-03-08T15:47:49;10.60;99.90
10419;DHT22;5256;48.728;9.140;2024-03-08T15:50:15;10.30;99.90
10419;DHT22;5256;48.728;9.140;2024-03-08T15:52:44;10.10;99.90
10419;DHT22;5256;48.728;9.140;2024-03-08T15:55:17;10.00;99.90
10419;DHT22;5256;48.728;9.140;2024-03-08T15:57:46;9.70;99.90
10419;DHT22;5256;48.728;9.140;2024-03-08T16:00:17;9.80;99.90
10419;DHT22;5256;48.728;9.140;2024-03-08T16:03:04;9.50;99.90
10419;DHT22;5256;48.728;9.140;2024-03-08T16:05:36;9.20;99.90
10419;DHT22;5256;48.728;9.140;2024-03-08T16:08:02;9.20;99.90
10419;DHT22;5256;48.728;9.140;2024-03-08T16:10:29;9.20;99.90
10419;DHT22;5256;48.728;9.140;2024-03-08T16:12:58;9.20;99.90
10419;DHT22;5256;48.728;9.140;2024-03-08T16:15:25;9.00;99.90